createdAt,value
2023-02-01T00:02:10.058Z,86.15
2023-02-01T00:04:36.383Z,85.80
2023-02-01T00:07:02.697Z,84.47
2023-02-01T00:09:29.064Z,84.16
2023-02-01T00:11:55.339Z,83.00
2023-02-01T00:14:22.001Z,81.66
2023-02-01T00:16:48.291Z,82.28
2023-02-01T00:19:16.280Z,82.18
2023-02-01T00:21:42.722Z,81.75
2023-02-01T00:24:10.731Z,82.41
2023-02-01T00:26:45.551Z,82.42
2023-02-01T00:29:17.590Z,82.34
2023-02-01T00:31:44.789Z,82.69
2023-02-01T00:34:15.829Z,83.23
2023-02-01T00:36:43.412Z,82.05
2023-02-01T00:39:10.464Z,81.11
2023-02-01T00:41:36.777Z,81.59
2023-02-01T00:44:03.752Z,81.06
2023-02-01T00:46:30.344Z,80.83
2023-02-01T00:48:56.795Z,79.75
2023-02-01T00:51:26.108Z,79.54
2023-02-01T00:53:53.462Z,79.20
2023-02-01T00:56:20.279Z,78.47
2023-02-01T00:58:46.943Z,78.27
2023-02-01T01:01:16.528Z,78.70
2023-02-01T01:03:45.781Z,78.29
2023-02-01T01:06:15.194Z,78.94
2023-02-01T01:08:42.327Z,80.16
2023-02-01T01:11:30.849Z,79.88
2023-02-01T01:13:58.885Z,80.25
2023-02-01T01:16:27.545Z,80.98
2023-02-01T01:18:54.476Z,79.42
2023-02-01T01:21:20.961Z,81.10
2023-02-01T01:23:48.092Z,81.16
2023-02-01T01:26:17.719Z,80.09
2023-02-01T01:28:44.395Z,79.58
2023-02-01T01:31:12.523Z,80.34
2023-02-01T01:33:39.068Z,80.12
2023-02-01T01:36:07.289Z,80.58
2023-02-01T01:38:33.753Z,81.51
2023-02-01T01:41:00.099Z,81.67
2023-02-01T01:43:26.403Z,80.20
2023-02-01T01:45:52.697Z,79.96
2023-02-01T01:48:28.691Z,80.11
2023-02-01T01:51:02.196Z,80.74
2023-02-01T01:53:30.520Z,79.54
2023-02-01T01:55:57.571Z,79.22
2023-02-01T01:58:26.944Z,79.57
2023-02-01T02:00:54.973Z,80.63
2023-02-01T02:03:47.926Z,80.36
2023-02-01T02:06:40.418Z,79.88
2023-02-01T02:09:07.229Z,79.60
2023-02-01T02:11:34.055Z,79.88
2023-02-01T02:14:00.955Z,79.96
2023-02-01T02:16:47.081Z,79.35
2023-02-01T02:19:31.650Z,79.32
2023-02-01T02:22:14.625Z,78.69
2023-02-01T02:25:03.719Z,79.53
2023-02-01T02:27:51.465Z,80.30
2023-02-01T02:30:36.803Z,78.84
2023-02-01T02:33:36.673Z,78.66
2023-02-01T02:36:13.320Z,78.51
2023-02-01T02:38:46.312Z,77.62
2023-02-01T02:41:28.658Z,79.13
2023-02-01T02:43:59.491Z,79.16
2023-02-01T02:46:32.929Z,78.36
2023-02-01T02:49:10.165Z,78.90
2023-02-01T02:52:05.988Z,78.05
2023-02-01T02:54:36.863Z,78.61
2023-02-01T02:57:06.913Z,79.24
2023-02-01T02:59:36.083Z,77.95
2023-02-01T03:02:02.802Z,78.34
2023-02-01T03:04:29.277Z,78.49
2023-02-01T03:06:55.803Z,78.83
2023-02-01T03:09:36.702Z,78.30
2023-02-01T03:12:10.156Z,79.03
2023-02-01T03:14:38.207Z,80.00
2023-02-01T03:17:12.622Z,78.72
2023-02-01T03:19:44.669Z,78.49
2023-02-01T03:22:15.558Z,79.57
2023-02-01T03:24:44.242Z,78.75
2023-02-01T03:27:28.187Z,79.25
2023-02-01T03:30:09.439Z,78.67
2023-02-01T03:32:38.545Z,79.84
2023-02-01T03:35:05.282Z,79.43
2023-02-01T03:37:31.674Z,78.57
2023-02-01T03:40:02.190Z,79.18
2023-02-01T03:42:49.019Z,79.68
2023-02-01T03:45:41.339Z,79.90
2023-02-01T03:48:08.034Z,78.26
2023-02-01T03:50:37.614Z,79.49
2023-02-01T03:53:11.955Z,79.02
2023-02-01T03:55:38.731Z,79.08
2023-02-01T03:58:12.711Z,79.01
2023-02-01T04:00:39.931Z,79.54
2023-02-01T04:03:07.977Z,79.05
2023-02-01T04:05:35.056Z,79.65
2023-02-01T04:08:01.547Z,78.13
2023-02-01T04:10:27.955Z,78.73
2023-02-01T04:12:54.298Z,78.82
2023-02-01T04:15:20.640Z,78.74
2023-02-01T04:17:46.964Z,79.93
2023-02-01T04:20:13.384Z,78.07
2023-02-01T04:22:39.705Z,78.15
2023-02-01T04:25:06.709Z,78.33
2023-02-01T04:27:33.033Z,78.78
2023-02-01T04:29:59.334Z,77.78
2023-02-01T04:32:25.621Z,77.32
2023-02-01T04:34:52.045Z,76.78
2023-02-01T04:37:18.364Z,77.86
2023-02-01T04:39:44.689Z,77.76
2023-02-01T04:42:11.042Z,78.50
2023-02-01T04:44:37.365Z,78.38
2023-02-01T04:47:03.705Z,78.03
2023-02-01T04:49:29.988Z,78.01
2023-02-01T04:51:56.269Z,77.33
2023-02-01T04:54:22.556Z,76.90
2023-02-01T04:56:48.847Z,78.43
2023-02-01T04:59:15.160Z,77.96
2023-02-01T05:01:41.529Z,77.94
2023-02-01T05:04:07.978Z,78.16
2023-02-01T05:06:34.308Z,77.83
2023-02-01T05:09:00.624Z,77.05
2023-02-01T05:11:26.915Z,77.20
2023-02-01T05:13:53.285Z,78.04
2023-02-01T05:16:19.667Z,78.08
2023-02-01T05:18:46.410Z,78.04
2023-02-01T05:21:12.759Z,77.69
2023-02-01T05:23:39.031Z,77.69
2023-02-01T05:26:05.406Z,77.69
2023-02-01T05:28:31.679Z,78.17
2023-02-01T05:30:58.026Z,77.93
2023-02-01T05:33:24.375Z,77.02
2023-02-01T05:35:50.657Z,76.97
2023-02-01T05:38:16.920Z,76.93
2023-02-01T05:40:43.209Z,77.10
2023-02-01T05:43:09.491Z,77.59
2023-02-01T05:45:35.917Z,77.12
2023-02-01T05:48:02.233Z,77.46
2023-02-01T05:50:28.534Z,77.13
2023-02-01T05:52:54.864Z,77.06
2023-02-01T05:55:21.154Z,77.29
2023-02-01T05:57:47.470Z,77.34
2023-02-01T06:00:14.257Z,77.01
2023-02-01T06:02:40.660Z,77.34
2023-02-01T06:05:07.618Z,76.29
2023-02-01T06:07:33.945Z,76.92
2023-02-01T06:10:00.227Z,76.36
2023-02-01T06:12:26.552Z,76.86
2023-02-01T06:14:52.823Z,76.57
2023-02-01T06:17:19.085Z,76.92
2023-02-01T06:19:45.400Z,75.72
2023-02-01T06:22:11.690Z,75.75
2023-02-01T06:24:37.960Z,76.79
2023-02-01T06:27:04.328Z,76.48
2023-02-01T06:29:30.671Z,77.49
2023-02-01T06:31:57.064Z,78.58
2023-02-01T06:34:23.405Z,80.10
2023-02-01T06:36:49.894Z,79.91
2023-02-01T06:39:16.188Z,81.24
2023-02-01T06:41:47.347Z,81.79
2023-02-01T06:44:13.794Z,81.05
2023-02-01T06:46:40.605Z,82.34
2023-02-01T06:49:06.935Z,81.31
2023-02-01T06:51:33.277Z,82.47
2023-02-01T06:53:59.709Z,81.84
2023-02-01T06:56:26.418Z,83.24
2023-02-01T06:58:52.970Z,83.34
2023-02-01T07:01:19.603Z,82.47
2023-02-01T07:03:51.744Z,83.48
2023-02-01T07:06:18.922Z,83.48
2023-02-01T07:08:45.366Z,83.21
2023-02-01T07:11:13.937Z,83.20
2023-02-01T07:13:40.281Z,83.01
2023-02-01T07:16:10.261Z,82.83
2023-02-01T07:18:36.563Z,82.58
2023-02-01T07:21:02.905Z,82.21
2023-02-01T07:23:29.503Z,82.79
2023-02-01T07:25:57.949Z,81.98
2023-02-01T07:28:24.893Z,82.13
2023-02-01T07:30:51.676Z,81.77
2023-02-01T07:33:22.562Z,82.56
2023-02-01T07:35:50.120Z,82.49
2023-02-01T07:38:17.311Z,82.08
2023-02-01T07:40:44.232Z,81.99
2023-02-01T07:43:10.590Z,82.76
2023-02-01T07:45:37.650Z,82.33
2023-02-01T07:48:04.495Z,82.13
2023-02-01T07:50:31.145Z,81.49
2023-02-01T07:53:00.272Z,82.54
2023-02-01T07:55:26.574Z,82.42
2023-02-01T07:57:53.231Z,82.58
2023-02-01T08:00:20.106Z,82.08
2023-02-01T08:02:46.388Z,83.30
2023-02-01T08:05:12.697Z,84.50
2023-02-01T08:07:38.997Z,84.26
2023-02-01T08:10:05.808Z,85.58
2023-02-01T08:12:32.126Z,85.68
2023-02-01T08:14:58.422Z,86.71
2023-02-01T08:17:24.754Z,86.34
2023-02-01T08:19:51.105Z,86.52
2023-02-01T08:22:17.407Z,87.58
2023-02-01T08:24:43.735Z,87.88
2023-02-01T08:27:10.052Z,87.65
2023-02-01T08:29:36.384Z,87.57
2023-02-01T08:32:02.720Z,87.31
2023-02-01T08:34:29.272Z,88.14
2023-02-01T08:36:55.592Z,88.83
2023-02-01T08:39:21.880Z,89.00
2023-02-01T08:41:48.173Z,88.97
2023-02-01T08:44:14.447Z,89.22
2023-02-01T08:46:40.768Z,89.76
2023-02-01T08:49:07.072Z,88.93
2023-02-01T08:51:33.381Z,88.82
2023-02-01T08:53:59.673Z,89.86
2023-02-01T08:56:26.014Z,89.25
2023-02-01T08:58:52.302Z,90.02
2023-02-01T09:01:18.741Z,89.77
2023-02-01T09:03:46.651Z,89.63
2023-02-01T09:06:15.213Z,90.25
2023-02-01T09:08:41.856Z,90.26
2023-02-01T09:11:13.400Z,90.18
2023-02-01T09:13:39.754Z,89.27
2023-02-01T09:16:06.508Z,89.92
2023-02-01T09:18:33.042Z,89.42
2023-02-01T09:20:59.387Z,90.31
2023-02-01T09:23:25.724Z,89.51
2023-02-01T09:25:52.153Z,89.40
2023-02-01T09:28:19.208Z,88.69
2023-02-01T09:30:45.946Z,89.17
2023-02-01T09:33:12.365Z,88.12
2023-02-01T09:35:38.690Z,88.39
2023-02-01T09:38:05.020Z,89.64
2023-02-01T09:40:31.959Z,88.52
2023-02-01T09:42:58.247Z,88.25
2023-02-01T09:45:40.105Z,88.37
2023-02-01T09:48:15.200Z,88.50
2023-02-01T09:50:46.800Z,87.62
2023-02-01T09:53:22.166Z,87.32
2023-02-01T09:55:51.658Z,86.83
2023-02-01T09:58:30.868Z,87.66
2023-02-01T10:01:02.008Z,87.00
2023-02-01T10:03:32.688Z,86.96
2023-02-01T10:06:30.202Z,87.63
2023-02-01T10:09:09.192Z,86.59
2023-02-01T10:11:53.547Z,86.18
2023-02-01T10:14:38.519Z,86.09
2023-02-01T10:17:24.976Z,85.63
2023-02-01T10:19:56.946Z,85.91
2023-02-01T10:23:10.370Z,85.26
2023-02-01T10:25:49.236Z,86.14
2023-02-01T10:28:18.636Z,84.88
2023-02-01T10:30:47.752Z,86.16
2023-02-01T10:33:21.990Z,85.59
2023-02-01T10:35:55.143Z,86.93
2023-02-01T10:38:27.957Z,86.22
2023-02-01T10:40:58.963Z,86.36
2023-02-01T10:43:25.348Z,87.33
2023-02-01T10:45:52.038Z,87.56
2023-02-01T10:48:18.337Z,86.72
2023-02-01T10:50:54.615Z,86.64
2023-02-01T10:53:25.527Z,86.21
2023-02-01T10:55:54.518Z,86.01
2023-02-01T10:58:32.074Z,85.21
2023-02-01T11:01:01.904Z,85.29
2023-02-01T11:03:33.532Z,85.02
2023-02-01T11:06:00.795Z,85.16
2023-02-01T11:08:27.347Z,85.75
2023-02-01T11:11:03.051Z,85.35
2023-02-01T11:13:33.040Z,85.46
2023-02-01T11:16:02.320Z,85.48
2023-02-01T11:18:31.812Z,86.28
2023-02-01T11:20:59.956Z,85.71
2023-02-01T11:23:29.653Z,86.60
2023-02-01T11:25:58.807Z,85.51
2023-02-01T11:28:31.980Z,85.05
2023-02-01T11:31:02.535Z,85.32
2023-02-01T11:33:33.066Z,86.91
2023-02-01T11:35:59.535Z,84.92
2023-02-01T11:38:31.877Z,85.42
2023-02-01T11:41:21.853Z,84.77
2023-02-01T11:44:01.507Z,85.08
2023-02-01T11:46:36.738Z,83.75
2023-02-01T11:49:25.892Z,83.38
2023-02-01T11:52:06.689Z,82.93
2023-02-01T11:55:20.615Z,83.69
2023-02-01T11:57:55.080Z,83.71
2023-02-01T12:00:31.804Z,83.40
2023-02-01T12:03:29.268Z,83.09
2023-02-01T12:06:18.524Z,83.29
2023-02-01T12:09:06.360Z,81.92
2023-02-01T12:11:32.728Z,83.07
2023-02-01T12:14:35.925Z,81.48
2023-02-01T12:17:39.824Z,83.33
2023-02-01T12:20:11.809Z,81.21
2023-02-01T12:23:00.116Z,81.74
2023-02-01T12:25:40.950Z,80.88
2023-02-01T12:28:26.655Z,79.15
2023-02-01T12:31:27.214Z,77.21
2023-02-01T12:34:25.826Z,78.01
2023-02-01T12:37:01.261Z,78.44
2023-02-01T12:39:39.713Z,78.83
2023-02-01T12:42:30.034Z,78.60
2023-02-01T12:45:33.756Z,78.34
2023-02-01T12:48:31.040Z,78.44
2023-02-01T12:51:03.149Z,80.95
2023-02-01T12:53:55.145Z,81.39
2023-02-01T12:56:24.428Z,81.45
2023-02-01T12:58:54.396Z,83.36
2023-02-01T13:01:37.948Z,81.48
2023-02-01T13:04:20.176Z,80.61
2023-02-01T13:06:51.937Z,81.12
2023-02-01T13:09:26.393Z,81.06
2023-02-01T13:11:58.423Z,81.14
2023-02-01T13:14:36.513Z,81.97
2023-02-01T13:17:11.651Z,80.88
2023-02-01T13:19:55.066Z,82.75
2023-02-01T13:22:28.345Z,84.16
2023-02-01T13:25:06.434Z,84.17
2023-02-01T13:27:33.956Z,85.26
2023-02-01T13:30:07.089Z,86.04
2023-02-01T13:33:51.529Z,86.81
2023-02-01T13:35:56.940Z,86.64
2023-02-01T13:38:57.424Z,86.65
2023-02-01T13:41:33.406Z,87.04
2023-02-01T13:44:05.110Z,87.41
2023-02-01T13:46:46.377Z,87.76
2023-02-01T13:49:32.675Z,87.46
2023-02-01T13:52:00.063Z,87.90
2023-02-01T13:54:40.927Z,87.60
2023-02-01T13:57:40.788Z,87.02
2023-02-01T14:00:25.467Z,86.06
2023-02-01T14:03:00.656Z,84.85
2023-02-01T14:05:27.104Z,83.96
2023-02-01T14:08:05.599Z,82.34
2023-02-01T14:10:48.131Z,82.32
2023-02-01T14:13:31.959Z,82.11
2023-02-01T14:16:04.369Z,81.75
2023-02-01T14:18:36.756Z,82.28
2023-02-01T14:21:34.808Z,81.54
2023-02-01T14:24:21.703Z,81.83
2023-02-01T14:26:50.809Z,81.99
2023-02-01T14:29:21.035Z,82.28
2023-02-01T14:31:59.630Z,82.83
2023-02-01T14:34:50.739Z,83.31
2023-02-01T14:37:20.048Z,84.19
2023-02-01T14:39:46.274Z,84.84
2023-02-01T14:42:31.311Z,84.74
2023-02-01T14:45:20.427Z,84.92
2023-02-01T14:47:48.829Z,85.38
2023-02-01T14:50:27.601Z,85.02
2023-02-01T14:53:09.195Z,85.40
2023-02-01T14:55:56.216Z,84.22
2023-02-01T14:58:25.283Z,84.24
2023-02-01T15:00:57.498Z,83.62
2023-02-01T15:03:35.881Z,83.64
2023-02-01T15:06:02.664Z,83.61
2023-02-01T15:08:33.017Z,82.98
2023-02-01T15:11:04.608Z,80.70
2023-02-01T15:13:31.648Z,81.43
2023-02-01T15:16:16.381Z,79.71
2023-02-01T15:18:42.796Z,80.41
2023-02-01T15:21:28.618Z,79.59
2023-02-01T15:24:11.836Z,80.30
2023-02-01T15:26:38.198Z,80.85
2023-02-01T15:29:04.555Z,81.83
2023-02-01T15:31:41.646Z,83.33
2023-02-01T15:34:09.629Z,83.18
2023-02-01T15:36:36.019Z,83.66
2023-02-01T15:39:22.798Z,83.24
2023-02-01T15:42:12.744Z,84.05
2023-02-01T15:44:41.935Z,84.66
2023-02-01T15:47:24.886Z,85.15
2023-02-01T15:49:54.179Z,84.53
2023-02-01T15:52:40.767Z,86.25
2023-02-01T15:55:18.330Z,87.15
2023-02-01T15:57:45.337Z,87.75
2023-02-01T16:00:28.179Z,88.43
2023-02-01T16:03:03.191Z,88.03
2023-02-01T16:05:44.031Z,88.41
2023-02-01T16:08:13.051Z,88.10
2023-02-01T16:10:42.185Z,87.87
2023-02-01T16:13:08.738Z,88.32
2023-02-01T16:15:35.096Z,88.76
2023-02-01T16:18:01.448Z,88.53
2023-02-01T16:20:27.847Z,89.35
2023-02-01T16:22:54.183Z,89.16
2023-02-01T16:25:20.507Z,89.01
2023-02-01T16:27:46.884Z,89.49
2023-02-01T16:30:13.609Z,90.38
2023-02-01T16:32:40.009Z,89.89
2023-02-01T16:35:28.276Z,90.11
2023-02-01T16:37:55.092Z,90.14
2023-02-01T16:40:22.407Z,89.84
2023-02-01T16:42:51.126Z,90.60
2023-02-01T16:45:17.475Z,90.07
2023-02-01T16:47:50.779Z,90.56
2023-02-01T16:50:23.495Z,89.65
2023-02-01T16:52:51.336Z,89.77
2023-02-01T16:55:19.811Z,88.88
2023-02-01T16:57:49.099Z,89.25
2023-02-01T17:00:23.998Z,89.59
2023-02-01T17:02:51.113Z,89.08
2023-02-01T17:05:17.600Z,89.24
2023-02-01T17:07:43.960Z,89.60
2023-02-01T17:10:32.579Z,89.11
2023-02-01T17:12:59.516Z,89.06
2023-02-01T17:15:29.665Z,89.64
2023-02-01T17:17:56.004Z,88.93
2023-02-01T17:20:24.748Z,89.03
2023-02-01T17:22:52.001Z,88.34
2023-02-01T17:25:21.336Z,88.59
2023-02-01T17:27:48.951Z,88.23
2023-02-01T17:30:15.467Z,88.89
2023-02-01T17:32:42.195Z,88.62
2023-02-01T17:35:29.290Z,89.48
2023-02-01T17:37:55.869Z,89.42
2023-02-01T17:40:22.239Z,88.94
2023-02-01T17:42:48.572Z,88.87
2023-02-01T17:45:32.812Z,88.55
2023-02-01T17:47:59.275Z,87.98
2023-02-01T17:50:27.989Z,88.24
2023-02-01T17:52:54.294Z,88.08
2023-02-01T17:55:23.876Z,88.24
2023-02-01T17:57:50.537Z,88.19
2023-02-01T18:00:18.630Z,87.95
2023-02-01T18:02:45.733Z,87.89
2023-02-01T18:05:29.351Z,88.45
2023-02-01T18:07:55.782Z,87.41
2023-02-01T18:10:22.172Z,87.64
2023-02-01T18:12:48.625Z,86.62
2023-02-01T18:15:18.129Z,87.20
2023-02-01T18:17:44.563Z,87.07
2023-02-01T18:20:19.348Z,87.45
2023-02-01T18:22:46.679Z,86.08
2023-02-01T18:25:27.205Z,86.41
2023-02-01T18:27:55.630Z,86.46
2023-02-01T18:30:24.547Z,86.61
2023-02-01T18:32:51.302Z,86.25
2023-02-01T18:35:24.138Z,86.86
2023-02-01T18:37:51.785Z,86.33
2023-02-01T18:40:19.431Z,86.04
2023-02-01T18:42:46.027Z,86.38
2023-02-01T18:45:26.974Z,87.03
2023-02-01T18:47:53.483Z,86.46
2023-02-01T18:50:20.274Z,86.88
2023-02-01T18:52:46.979Z,87.15
2023-02-01T18:55:13.881Z,86.22
2023-02-01T18:57:40.818Z,86.75
2023-02-01T19:00:09.245Z,86.14
2023-02-01T19:02:35.756Z,86.98
2023-02-01T19:05:02.079Z,86.75
2023-02-01T19:07:28.525Z,86.07
2023-02-01T19:09:54.820Z,86.34
2023-02-01T19:12:21.245Z,86.04
2023-02-01T19:14:47.593Z,86.48
2023-02-01T19:17:13.926Z,85.89
2023-02-01T19:19:41.926Z,85.69
2023-02-01T19:22:08.391Z,85.36
2023-02-01T19:24:34.669Z,85.19
2023-02-01T19:27:00.965Z,85.08
2023-02-01T19:29:27.361Z,86.48
2023-02-01T19:31:53.718Z,85.46
2023-02-01T19:34:20.032Z,85.49
2023-02-01T19:36:46.371Z,85.22
2023-02-01T19:39:12.678Z,85.15
2023-02-01T19:41:38.976Z,85.49
2023-02-01T19:44:05.550Z,85.21
2023-02-01T19:46:31.907Z,84.37
2023-02-01T19:48:58.279Z,85.05
2023-02-01T19:51:24.646Z,84.96
2023-02-01T19:53:50.967Z,85.91
2023-02-01T19:56:17.271Z,84.90
2023-02-01T19:58:43.574Z,86.11
2023-02-01T20:01:09.014Z,85.35
2023-02-01T20:03:35.352Z,84.33
2023-02-01T20:06:01.844Z,84.90
2023-02-01T20:08:28.158Z,84.46
2023-02-01T20:10:54.491Z,84.41
2023-02-01T20:13:20.798Z,83.91
2023-02-01T20:15:47.312Z,83.54
2023-02-01T20:18:13.645Z,82.83
2023-02-01T20:20:40.951Z,83.15
2023-02-01T20:23:07.333Z,83.64
2023-02-01T20:25:36.408Z,83.84
2023-02-01T20:28:02.740Z,83.87
2023-02-01T20:30:29.096Z,82.92
2023-02-01T20:32:55.407Z,84.17
2023-02-01T20:35:22.032Z,83.56
2023-02-01T20:37:48.569Z,84.35
2023-02-01T20:40:14.911Z,83.82
2023-02-01T20:42:41.237Z,82.77
2023-02-01T20:45:08.115Z,82.67
2023-02-01T20:47:34.447Z,83.20
2023-02-01T20:50:00.741Z,83.73
2023-02-01T20:52:27.050Z,83.82
2023-02-01T20:54:53.342Z,83.20
2023-02-01T20:57:19.616Z,83.53
2023-02-01T20:59:45.937Z,83.22
2023-02-01T21:02:12.246Z,82.71
2023-02-01T21:04:38.595Z,83.55
2023-02-01T21:07:04.873Z,83.17
2023-02-01T21:09:31.186Z,83.66
2023-02-01T21:11:57.522Z,82.73
2023-02-01T21:14:23.850Z,82.71
2023-02-01T21:16:50.168Z,82.11
2023-02-01T21:19:17.820Z,82.56
2023-02-01T21:21:44.344Z,81.92
2023-02-01T21:24:10.671Z,81.89
2023-02-01T21:26:36.997Z,83.05
2023-02-01T21:29:03.284Z,82.66
2023-02-01T21:31:29.607Z,83.13
2023-02-01T21:33:55.933Z,83.19
2023-02-01T21:36:22.368Z,82.74
2023-02-01T21:38:50.210Z,82.84
2023-02-01T21:41:21.857Z,83.11
2023-02-01T21:43:48.152Z,83.03
2023-02-01T21:46:14.490Z,83.12
2023-02-01T21:49:04.888Z,82.44
2023-02-01T21:51:28.171Z,82.38
2023-02-01T21:53:54.525Z,83.15
2023-02-01T21:56:20.820Z,82.47
2023-02-01T21:58:47.169Z,82.80
2023-02-01T22:01:13.562Z,82.67
2023-02-01T22:03:39.908Z,83.03
2023-02-01T22:06:06.504Z,82.46
2023-02-01T22:08:38.782Z,83.36
2023-02-01T22:11:05.628Z,82.55
2023-02-01T22:13:31.976Z,82.53
2023-02-01T22:15:58.374Z,82.86
2023-02-01T22:18:24.630Z,83.30
2023-02-01T22:20:50.913Z,82.54
2023-02-01T22:23:17.214Z,82.76
2023-02-01T22:25:43.523Z,82.56
2023-02-01T22:28:30.355Z,82.84
2023-02-01T22:31:01.708Z,82.01
2023-02-01T22:33:28.334Z,81.53
2023-02-01T22:35:54.705Z,81.04
2023-02-01T22:38:21.012Z,82.15
2023-02-01T22:40:57.588Z,80.78
2023-02-01T22:43:24.449Z,80.11
2023-02-01T22:45:51.137Z,80.49
2023-02-01T22:48:17.641Z,80.93
2023-02-01T22:50:44.709Z,80.90
2023-02-01T22:53:11.381Z,80.86
2023-02-01T22:55:38.148Z,81.34
2023-02-01T22:58:04.464Z,80.73
2023-02-01T23:00:30.793Z,80.36
2023-02-01T23:02:57.097Z,80.56
2023-02-01T23:05:23.747Z,81.24
2023-02-01T23:07:50.953Z,80.76
2023-02-01T23:10:18.646Z,81.21
2023-02-01T23:12:48.111Z,80.50
2023-02-01T23:15:15.001Z,80.73
2023-02-01T23:17:42.507Z,80.17
2023-02-01T23:20:12.855Z,80.54
2023-02-01T23:22:39.135Z,80.79
2023-02-01T23:25:05.879Z,80.89
2023-02-01T23:27:32.193Z,81.17
2023-02-01T23:29:58.505Z,80.91
2023-02-01T23:32:24.869Z,80.33
2023-02-01T23:34:51.152Z,81.09
2023-02-01T23:37:17.422Z,80.11
2023-02-01T23:39:43.709Z,80.49
2023-02-01T23:42:10.040Z,80.46
2023-02-01T23:44:36.319Z,81.49
2023-02-01T23:47:02.657Z,81.37
2023-02-01T23:49:28.943Z,80.77
2023-02-01T23:51:55.340Z,81.21
2023-02-01T23:54:23.171Z,81.46
2023-02-01T23:56:50.232Z,81.26
2023-02-01T23:59:19.102Z,81.20
